Portada
METAR-TAF:

METAR-TAF

Aeropuertos :

Base Aérea de la Isla Ascensión

Georgetown, Isla Ascensión

latitud: 07-58S, longitud: 014-24W, altitud: 86 m

METAR: falta

Hora: 11:58 (11:58 UTC)

Pronóstico

El informe se hizo hace 19 horas y 28 minutos, a las 16:30 UTC
Pronóstico válido del 19 a las 18 UTC al 20 a las 12 UTC
Viento 15 kt del sureste con ráfagas de 25 kt
Visibilidad 10 km o más
Escasas nubes a una altura de 1800 ft
Cielo nuboso a una altura de 4000 ft
Temporalmente
del 19 a las 18 UTC al 20 a las 11 UTC
Nubes dispersas a una altura de 1500 ft
Probabilidad 30% :
Temporalmente
del 19 a las 19 UTC al 20 a las 10 UTC
Visibilidad: 4000 m
Nubes dispersas a una altura de 700 ft
chaparrones de lluvia

TAF: FHAW 191630Z 1918/2012 13015G25KT 9999 FEW018 BKN040 TEMPO 1918/2011 SCT015 PROB30 TEMPO 1919/2010 4000 SHRA SCT007

Observaciones y pronósticos meteorológicos de más de 4000 aeropuertos (mensajes METAR y TAF).

Los puntos amarillos y rojos representan las estaciones disponibles.

Ponga el ratón en el punto deseado para ver el nombre de la estación.

Haga clic para ver las observaciones y los pronósticos meteorológicos.

Para cambiar el mapa : haga clic en los botones verdes con una cruz de color negro para hacer un zoom, en el botón verde con un guión para alejar o en las flechas verdes para mapas adyacentes.


METAR-TAF: